Time;durP1;ratioP1;P1;durP2;ratioP2;P2;SDS_P1;SDS_P2;PMS_P1;PMS_P2;Temp;Humidity;BMP_temperature;BMP_pressure;BME280_temperature;BME280_humidity;BME280_pressure;Samples;Min_cycle;Max_cycle;Signal;HPM_P1;HPM_P2
2023/10/23 00:01:55;;;;;;;4.10;1.73;;;;;;;15.09;72.60;99910.13;4423581;32;33959;-78
2023/10/23 00:04:22;;;;;;;8.25;2.17;;;;;;;15.25;71.97;99905.31;4423491;32;33869;-78
2023/10/23 00:06:50;;;;;;;4.43;1.90;;;;;;;15.27;71.64;99906.25;4422969;32;33830;-78
2023/10/23 00:09:18;;;;;;;5.62;1.70;;;;;;;15.10;71.42;99901.47;4415655;32;33314;-78
2023/10/23 00:11:45;;;;;;;4.90;1.87;;;;;;;15.47;70.01;99897.25;4423857;32;33410;-78
2023/10/23 00:14:13;;;;;;;4.10;1.90;;;;;;;15.41;69.98;99891.84;4409460;32;34034;-78
2023/10/23 00:16:40;;;;;;;4.25;1.87;;;;;;;15.62;68.89;99901.09;4422843;32;33731;-78
2023/10/23 00:19:08;;;;;;;4.20;1.90;;;;;;;15.72;67.87;99897.84;4423707;32;33795;-78
2023/10/23 00:21:36;;;;;;;4.62;1.90;;;;;;;15.30;69.49;99898.50;4423631;32;33305;-78
2023/10/23 00:24:03;;;;;;;4.25;1.85;;;;;;;15.35;69.43;99894.28;4422298;32;34425;-78
2023/10/23 00:26:31;;;;;;;4.53;1.80;;;;;;;15.59;68.57;99904.50;4428069;32;34464;-78
2023/10/23 00:29:00;;;;;;;4.30;1.77;;;;;;;15.54;68.64;99913.94;4412564;32;32350;-78
2023/10/23 00:31:28;;;;;;;4.73;2.13;;;;;;;15.31;69.16;99911.56;4432039;32;33133;-78
2023/10/23 00:33:56;;;;;;;9.57;2.80;;;;;;;14.86;71.19;99911.19;4423934;32;33660;-78
2023/10/23 00:36:23;;;;;;;6.12;2.00;;;;;;;14.78;71.62;99907.47;4429997;32;33856;-78
2023/10/23 00:38:52;;;;;;;5.53;2.10;;;;;;;14.48;73.12;99909.16;4426870;32;33601;-78
2023/10/23 00:41:20;;;;;;;6.10;1.60;;;;;;;14.81;72.34;99912.75;4423434;32;34090;-78
2023/10/23 00:43:47;;;;;;;6.75;1.83;;;;;;;14.68;73.09;99916.72;4418244;32;33606;-78
2023/10/23 00:46:21;;;;;;;4.20;1.95;;;;;;;14.79;72.38;99924.87;4421894;32;33399;-78
2023/10/23 00:48:50;;;;;;;6.70;2.55;;;;;;;14.66;72.94;99921.91;4402447;32;32961;-78
2023/10/23 00:51:19;;;;;;;7.00;2.45;;;;;;;15.22;70.36;99910.44;4426236;32;33401;-78
2023/10/23 00:53:47;;;;;;;6.45;2.15;;;;;;;15.47;69.07;99912.91;4421472;32;33607;-78
2023/10/23 00:56:15;;;;;;;4.75;1.87;;;;;;;15.17;69.14;99922.50;4421148;32;33317;-78
2023/10/23 00:58:43;;;;;;;5.32;1.70;;;;;;;14.59;71.52;99912.13;4422113;32;33806;-78
2023/10/23 01:01:14;;;;;;;4.12;1.92;;;;;;;14.72;71.35;99914.28;4427744;32;33476;-78
2023/10/23 01:03:42;;;;;;;6.40;1.80;;;;;;;15.09;70.10;99907.50;4423993;32;34147;-78
2023/10/23 01:06:12;;;;;;;3.53;1.65;;;;;;;14.67;71.58;99905.41;4422616;32;33721;-78
2023/10/23 01:08:42;;;;;;;4.12;1.80;;;;;;;14.77;71.53;99903.97;4404248;32;33411;-78
2023/10/23 01:11:10;;;;;;;4.80;2.10;;;;;;;15.23;68.87;99902.66;4408639;32;33119;-78
2023/10/23 01:13:38;;;;;;;4.20;1.98;;;;;;;14.80;70.05;99911.00;4406976;32;34639;-78
2023/10/23 01:16:05;;;;;;;4.35;1.83;;;;;;;15.19;68.70;99907.78;4407296;32;33769;-78
2023/10/23 01:18:33;;;;;;;3.90;1.80;;;;;;;14.79;70.03;99912.72;4396830;32;33572;-78
2023/10/23 01:21:01;;;;;;;4.87;2.00;;;;;;;14.61;70.62;99915.66;4409747;32;33827;-78
2023/10/23 01:23:34;;;;;;;4.12;1.90;;;;;;;14.42;71.16;99914.19;4420437;32;33650;-78
2023/10/23 01:26:02;;;;;;;4.20;1.80;;;;;;;14.51;70.97;99918.81;4407668;32;33440;-78
2023/10/23 01:28:30;;;;;;;5.72;2.20;;;;;;;14.89;69.57;99921.69;4409679;32;33801;-78
2023/10/23 01:30:57;;;;;;;5.82;2.15;;;;;;;14.74;69.82;99917.81;4411553;32;34026;-78
2023/10/23 01:33:25;;;;;;;4.62;1.75;;;;;;;14.62;70.64;99929.56;4415290;32;33612;-78
2023/10/23 01:35:53;;;;;;;4.00;1.73;;;;;;;14.77;69.95;99921.34;4409245;32;34868;-78
2023/10/23 01:38:20;;;;;;;4.43;1.70;;;;;;;14.96;68.83;99912.34;4414044;32;34094;-78
2023/10/23 01:40:48;;;;;;;4.87;1.50;;;;;;;14.87;69.18;99920.75;4411294;32;33873;-78
2023/10/23 01:43:16;;;;;;;4.82;1.65;;;;;;;14.53;70.28;99918.00;4410710;32;33279;-78
2023/10/23 01:45:43;;;;;;;5.00;1.70;;;;;;;14.34;71.14;99926.09;4408883;32;33873;-78
2023/10/23 01:48:11;;;;;;;4.03;1.60;;;;;;;14.18;72.03;99918.59;4409103;32;33914;-78
2023/10/23 01:50:39;;;;;;;4.72;1.62;;;;;;;14.16;72.68;99918.59;4409993;32;33044;-78
2023/10/23 01:53:08;;;;;;;3.30;1.58;;;;;;;14.36;72.03;99920.06;4416118;32;33608;-78
2023/10/23 01:55:36;;;;;;;5.90;2.10;;;;;;;14.58;70.91;99910.34;4395534;32;33651;-78
2023/10/23 01:58:04;;;;;;;5.70;2.08;;;;;;;14.61;70.18;99910.44;4408154;32;32886;-78
2023/10/23 02:00:31;;;;;;;4.72;1.80;;;;;;;14.32;71.31;99912.13;4408309;32;33943;-78
2023/10/23 02:02:59;;;;;;;5.30;2.70;;;;;;;14.43;71.11;99913.34;4408264;32;33838;-78
2023/10/23 02:05:27;;;;;;;4.55;2.00;;;;;;;14.74;69.19;99912.59;4409003;32;33862;-78
2023/10/23 02:07:55;;;;;;;4.28;1.90;;;;;;;14.65;69.32;99921.84;4410178;32;33487;-78
2023/10/23 02:10:23;;;;;;;4.50;1.85;;;;;;;14.91;68.04;99914.78;4429501;32;33285;-78
2023/10/23 02:12:50;;;;;;;4.73;1.80;;;;;;;14.96;67.58;99918.44;4430074;32;33742;-78
2023/10/23 02:15:18;;;;;;;4.53;1.67;;;;;;;14.88;67.32;99912.13;4425624;32;33506;-78
2023/10/23 02:17:47;;;;;;;3.72;1.73;;;;;;;14.94;67.19;99909.69;4427463;32;33665;-78
2023/10/23 02:20:14;;;;;;;3.75;1.90;;;;;;;14.78;67.59;99918.78;4430277;32;32807;-78
2023/10/23 02:22:42;;;;;;;4.82;1.90;;;;;;;14.35;69.24;99915.72;4423923;32;34398;-78
2023/10/23 02:25:09;;;;;;;6.55;2.28;;;;;;;14.03;70.57;99913.81;4427526;32;33661;-78
2023/10/23 02:27:37;;;;;;;5.78;2.10;;;;;;;14.07;70.33;99919.16;4422886;32;34006;-78
2023/10/23 02:30:05;;;;;;;5.83;2.03;;;;;;;13.93;70.90;99918.72;4424231;32;33057;-78
2023/10/23 02:32:33;;;;;;;5.30;2.15;;;;;;;13.99;70.72;99924.97;4425172;32;33541;-78
2023/10/23 02:35:01;;;;;;;4.28;1.73;;;;;;;13.86;71.11;99914.12;4432035;32;34404;-78
2023/10/23 02:37:28;;;;;;;6.47;2.00;;;;;;;13.80;71.45;99921.72;4410274;32;33181;-78
2023/10/23 02:39:56;;;;;;;5.80;1.80;;;;;;;13.87;71.12;99923.72;4424132;32;33047;-78
2023/10/23 02:42:24;;;;;;;5.28;1.77;;;;;;;13.85;71.17;99925.37;4422119;32;34177;-78
2023/10/23 02:44:52;;;;;;;5.78;1.87;;;;;;;13.93;71.06;99929.12;4431337;32;33858;-78
2023/10/23 02:47:19;;;;;;;6.87;2.90;;;;;;;13.96;70.81;99929.25;4423623;32;33358;-78
2023/10/23 02:49:47;;;;;;;7.80;3.28;;;;;;;14.09;70.04;99929.62;4410241;32;32847;-78
2023/10/23 02:52:15;;;;;;;13.52;8.35;;;;;;;14.06;69.95;99927.81;4425363;32;33433;-78
2023/10/23 02:54:43;;;;;;;11.65;7.22;;;;;;;14.29;68.67;99932.87;4425479;32;33781;-78
2023/10/23 02:57:12;;;;;;;12.15;6.90;;;;;;;14.21;69.13;99935.22;4423892;32;33595;-78
2023/10/23 02:59:46;;;;;;;12.43;6.20;;;;;;;14.35;68.56;99933.97;4421919;32;33589;-78
2023/10/23 03:02:15;;;;;;;10.07;5.40;;;;;;;14.69;67.35;99934.16;4422252;32;33525;-78
2023/10/23 03:04:42;;;;;;;9.32;4.87;;;;;;;14.69;67.22;99924.59;4424530;32;33610;-78
2023/10/23 03:07:11;;;;;;;8.25;3.87;;;;;;;14.62;66.85;99927.88;4425928;32;33757;-79
2023/10/23 03:09:39;;;;;;;8.30;4.83;;;;;;;14.63;66.81;99929.62;4398056;32;908972;-78
2023/10/23 03:12:07;;;;;;;9.23;4.43;;;;;;;14.50;67.34;99943.97;4422142;32;34458;-79
2023/10/23 03:14:34;;;;;;;10.50;4.80;;;;;;;14.55;67.18;99937.19;4431687;32;33932;-79
2023/10/23 03:17:02;;;;;;;9.88;4.85;;;;;;;14.28;67.84;99937.19;4426473;32;33707;-79
2023/10/23 03:19:32;;;;;;;8.73;4.33;;;;;;;13.94;69.42;99941.28;4423754;32;32587;-78
2023/10/23 03:22:00;;;;;;;8.55;4.10;;;;;;;13.66;70.76;99943.81;4423979;32;34590;-79
2023/10/23 03:24:28;;;;;;;6.97;3.08;;;;;;;13.54;71.45;99939.03;4426065;32;33729;-78
2023/10/23 03:26:57;;;;;;;4.80;2.33;;;;;;;13.52;71.86;99941.63;4427490;32;33460;-78
2023/10/23 03:29:24;;;;;;;6.20;2.92;;;;;;;13.57;72.22;99939.16;4422986;32;33175;-78
2023/10/23 03:31:52;;;;;;;4.65;2.00;;;;;;;13.66;72.43;99938.63;4422871;32;33910;-79
2023/10/23 03:34:24;;;;;;;5.05;2.15;;;;;;;13.63;72.48;99943.69;4423558;32;33777;-78
2023/10/23 03:36:52;;;;;;;5.18;2.00;;;;;;;13.72;72.32;99944.03;4428568;32;33307;-78
2023/10/23 03:39:20;;;;;;;3.62;1.70;;;;;;;13.71;72.21;99942.25;4422831;32;33096;-78
2023/10/23 03:41:47;;;;;;;5.07;1.98;;;;;;;13.89;71.32;99942.88;4432898;32;34375;-79
2023/10/23 03:44:15;;;;;;;3.87;1.77;;;;;;;13.90;71.22;99943.75;4421780;32;34101;-78
2023/10/23 03:46:42;;;;;;;6.07;2.25;;;;;;;13.88;71.51;99945.44;4422945;32;33973;-79
2023/10/23 03:49:11;;;;;;;4.83;2.00;;;;;;;14.04;70.86;99947.72;4396208;32;31999;-78
2023/10/23 03:51:39;;;;;;;3.87;1.80;;;;;;;13.89;71.21;99948.09;4423526;32;34900;-79
2023/10/23 03:54:06;;;;;;;4.87;1.80;;;;;;;13.79;71.40;99951.22;4420773;32;33893;-79
2023/10/23 03:56:33;;;;;;;5.62;2.55;;;;;;;13.73;71.83;99951.00;4427484;32;33720;-78
2023/10/23 03:59:02;;;;;;;5.82;2.45;;;;;;;14.38;69.46;99953.13;4421119;32;33093;-78
2023/10/23 04:01:30;;;;;;;6.70;2.20;;;;;;;14.46;68.51;99952.53;4418305;32;33501;-78
2023/10/23 04:03:58;;;;;;;3.85;1.60;;;;;;;14.33;68.58;99951.28;4410442;32;32603;-78
2023/10/23 04:06:25;;;;;;;5.10;1.90;;;;;;;14.05;69.50;99956.41;4415402;32;34725;-79
2023/10/23 04:08:53;;;;;;;5.03;2.05;;;;;;;14.10;69.67;99962.63;4428663;32;33338;-79
2023/10/23 04:11:20;;;;;;;4.95;1.95;;;;;;;14.41;68.57;99963.63;4426532;32;34805;-78
2023/10/23 04:13:48;;;;;;;3.60;1.33;;;;;;;13.73;70.75;99966.59;4433634;32;34476;-78
2023/10/23 04:16:15;;;;;;;3.90;1.50;;;;;;;13.69;71.32;99969.94;4432295;32;33891;-78
2023/10/23 04:18:44;;;;;;;4.05;1.10;;;;;;;13.78;70.99;99965.06;4431682;32;34061;-78
2023/10/23 04:21:12;;;;;;;2.50;1.05;;;;;;;13.61;71.77;99968.78;4431294;32;34401;-78
2023/10/23 04:23:40;;;;;;;3.97;1.13;;;;;;;13.82;71.14;99974.75;4423955;32;33708;-79
2023/10/23 04:26:08;;;;;;;4.28;1.30;;;;;;;14.03;70.38;99981.53;4425140;32;33394;-78
2023/10/23 04:28:38;;;;;;;4.95;1.10;;;;;;;14.03;70.65;99978.91;4411554;32;34016;-78
2023/10/23 04:31:06;;;;;;;3.35;1.17;;;;;;;14.00;70.56;99981.41;4432248;32;32772;-78
2023/10/23 04:33:33;;;;;;;3.30;1.20;;;;;;;14.06;70.22;99981.59;4423545;32;34707;-78
2023/10/23 04:36:01;;;;;;;4.72;1.23;;;;;;;13.80;70.89;99979.00;4426582;32;33428;-78
2023/10/23 04:38:29;;;;;;;5.90;1.20;;;;;;;13.71;71.22;99984.81;4423024;32;34002;-78
2023/10/23 04:40:56;;;;;;;4.07;1.20;;;;;;;13.78;71.05;99983.28;4407021;32;33476;-78
2023/10/23 04:43:24;;;;;;;2.97;1.30;;;;;;;13.64;71.49;99984.53;4431363;32;33175;-78
2023/10/23 04:45:55;;;;;;;3.67;1.30;;;;;;;13.66;71.89;99988.06;4427068;32;33598;-79
2023/10/23 04:48:24;;;;;;;3.35;1.10;;;;;;;14.13;69.76;99986.19;4429643;32;33564;-78
2023/10/23 04:50:57;;;;;;;4.75;1.48;;;;;;;13.75;71.04;99983.16;4413783;32;33413;-78
2023/10/23 04:53:25;;;;;;;4.05;1.25;;;;;;;13.90;70.47;99986.28;4424744;32;33057;-79
2023/10/23 04:55:54;;;;;;;3.78;1.10;;;;;;;13.97;70.31;99982.19;4426204;32;36216;-78
2023/10/23 04:58:21;;;;;;;3.25;1.10;;;;;;;13.87;70.60;99990.50;4435597;32;33550;-78
2023/10/23 05:00:49;;;;;;;4.45;1.30;;;;;;;13.86;70.42;99987.03;4426699;32;32359;-78
2023/10/23 05:03:17;;;;;;;4.47;1.50;;;;;;;14.13;69.41;99988.81;4426239;32;34242;-78
2023/10/23 05:05:51;;;;;;;3.00;1.30;;;;;;;14.00;69.70;99982.28;4427470;32;34144;-79
2023/10/23 05:08:19;;;;;;;3.05;1.37;;;;;;;14.03;69.47;99981.53;4410047;32;31979;-78
2023/10/23 05:10:46;;;;;;;3.83;1.17;;;;;;;14.12;68.94;99987.06;4425010;32;33661;-78
2023/10/23 05:13:14;;;;;;;3.42;1.20;;;;;;;13.83;69.95;99979.13;4429839;32;33399;-78
2023/10/23 05:15:41;;;;;;;3.67;1.45;;;;;;;13.88;69.95;99985.34;4429433;32;33738;-78
2023/10/23 05:18:09;;;;;;;4.30;1.60;;;;;;;13.92;69.96;99979.41;4425127;32;33444;-78
2023/10/23 05:20:37;;;;;;;4.18;2.05;;;;;;;13.74;70.66;99981.41;4429972;32;33728;-78
2023/10/23 05:23:04;;;;;;;4.62;1.50;;;;;;;14.16;69.55;99983.72;4425607;32;33492;-79
2023/10/23 05:25:35;;;;;;;3.62;1.50;;;;;;;14.09;69.68;99973.91;4427912;32;33682;-78
2023/10/23 05:28:02;;;;;;;3.78;1.45;;;;;;;14.19;69.42;99983.78;4420433;32;33180;-79
2023/10/23 05:30:30;;;;;;;5.53;2.58;;;;;;;14.30;68.81;99977.22;4412624;32;33888;-79
2023/10/23 05:32:58;;;;;;;7.68;4.00;;;;;;;14.30;68.45;99981.56;4420822;32;33620;-78
2023/10/23 05:35:26;;;;;;;6.95;3.20;;;;;;;14.53;67.82;99982.28;4418277;32;34396;-79
2023/10/23 05:37:53;;;;;;;6.90;2.85;;;;;;;14.32;68.64;99995.50;4429765;32;33962;-79
2023/10/23 05:40:21;;;;;;;5.72;2.90;;;;;;;14.51;68.06;99999.59;4425192;32;32771;-79
2023/10/23 05:42:48;;;;;;;4.80;2.30;;;;;;;14.64;67.05;100001.81;4418113;32;33150;-79
2023/10/23 05:45:16;;;;;;;5.82;2.30;;;;;;;14.30;68.32;100007.59;4424173;32;33952;-78
2023/10/23 05:47:43;;;;;;;4.60;2.55;;;;;;;14.02;69.78;100011.00;4425094;32;33741;-78
2023/10/23 05:50:11;;;;;;;6.25;2.65;;;;;;;13.93;70.30;100016.78;4421970;32;34669;-78
2023/10/23 05:52:39;;;;;;;4.80;2.10;;;;;;;13.89;70.47;100020.13;4427149;32;33363;-78
2023/10/23 05:55:25;;;;;;;4.22;1.83;;;;;;;13.89;70.76;100023.59;4428227;32;33750;-79
2023/10/23 05:57:54;;;;;;;4.78;2.60;;;;;;;13.84;71.05;100022.53;4423339;32;33401;-78
2023/10/23 06:00:21;;;;;;;7.07;2.45;;;;;;;14.08;70.61;100021.62;4427394;32;34535;-78
2023/10/23 06:02:49;;;;;;;3.97;1.60;;;;;;;14.09;70.72;100020.78;4421196;32;34073;-79
2023/10/23 06:05:17;;;;;;;4.10;1.50;;;;;;;14.09;71.09;100031.22;4423405;32;34630;-78
2023/10/23 06:07:44;;;;;;;5.55;1.73;;;;;;;14.09;71.18;100031.22;4433401;32;33275;-79
2023/10/23 06:10:12;;;;;;;3.85;1.55;;;;;;;14.09;71.12;100033.81;4409561;32;32161;-78
2023/10/23 06:12:40;;;;;;;4.00;1.50;;;;;;;14.11;71.44;100032.16;4428140;32;33581;-78
2023/10/23 06:15:10;;;;;;;3.90;1.90;;;;;;;14.11;71.67;100034.75;4432328;32;33916;-78
2023/10/23 06:17:37;;;;;;;3.95;1.80;;;;;;;14.34;70.90;100041.63;4409779;32;33803;-79
2023/10/23 06:20:07;;;;;;;6.22;2.33;;;;;;;14.62;69.85;100037.37;4425836;32;34288;-79
2023/10/23 06:22:35;;;;;;;4.63;2.20;;;;;;;14.52;70.11;100040.47;4429693;32;35320;-78
2023/10/23 06:25:04;;;;;;;4.62;2.40;;;;;;;14.41;70.56;100041.81;4426233;32;33794;-79
2023/10/23 06:27:31;;;;;;;4.40;2.75;;;;;;;14.29;70.97;100045.81;4410318;32;33775;-78
2023/10/23 06:29:59;;;;;;;7.00;3.25;;;;;;;14.33;71.03;100045.09;4426884;32;33320;-78
2023/10/23 06:32:26;;;;;;;5.18;2.53;;;;;;;14.60;70.12;100044.22;4428179;32;33691;-78
2023/10/23 06:34:54;;;;;;;4.62;2.40;;;;;;;14.59;70.25;100045.06;4426705;32;34107;-78
2023/10/23 06:37:22;;;;;;;5.10;1.90;;;;;;;14.36;71.64;100049.50;4428935;32;34102;-78
2023/10/23 06:39:51;;;;;;;2.65;1.60;;;;;;;14.43;71.89;100051.47;4412060;32;33728;-79
2023/10/23 06:42:18;;;;;;;5.97;1.90;;;;;;;14.68;71.37;100058.41;4410758;32;34441;-79
2023/10/23 06:44:45;;;;;;;4.70;1.80;;;;;;;14.66;71.32;100049.66;4425626;32;33879;-79
2023/10/23 06:47:15;;;;;;;4.55;2.10;;;;;;;14.64;71.50;100048.72;4421849;32;33646;-79
2023/10/23 06:49:46;;;;;;;4.62;1.73;;;;;;;14.67;71.58;100041.00;4420432;32;34399;-78
2023/10/23 06:52:14;;;;;;;3.91;1.80;;;;;;;14.84;71.21;100048.47;4424189;32;33182;-79
2023/10/23 06:54:41;;;;;;;5.13;1.97;;;;;;;14.96;70.95;100047.97;4416542;32;33515;-79
2023/10/23 06:57:09;;;;;;;4.30;2.00;;;;;;;15.03;71.15;100045.59;4427108;32;32823;-78
2023/10/23 06:59:37;;;;;;;4.85;1.83;;;;;;;15.16;70.99;100040.75;4430504;32;34291;-78
2023/10/23 07:02:04;;;;;;;3.50;1.95;;;;;;;15.19;71.18;100040.84;4428533;32;34673;-78
2023/10/23 07:04:32;;;;;;;4.20;2.10;;;;;;;15.16;72.01;100045.97;4425144;32;33709;-78
2023/10/23 07:07:00;;;;;;;4.10;2.10;;;;;;;15.05;72.89;100048.25;4425950;32;33116;-79
2023/10/23 07:09:37;;;;;;;4.70;2.90;;;;;;;15.19;72.93;100051.28;4411263;32;32181;-79
2023/10/23 07:12:06;;;;;;;5.70;3.40;;;;;;;15.57;71.91;100055.03;4411593;32;33818;-79
2023/10/23 07:14:34;;;;;;;6.00;3.45;;;;;;;15.73;70.91;100048.53;4429607;32;33858;-80
2023/10/23 07:17:02;;;;;;;5.60;3.72;;;;;;;15.67;70.99;100056.16;4424492;32;32903;-79
2023/10/23 07:19:30;;;;;;;8.37;4.90;;;;;;;15.65;71.04;100042.19;4424737;32;33263;-79
2023/10/23 07:21:57;;;;;;;6.97;5.00;;;;;;;15.63;71.46;100049.09;4425793;32;32535;-79
2023/10/23 07:24:25;;;;;;;7.55;5.30;;;;;;;16.10;70.07;100052.12;4430509;32;34190;-79
2023/10/23 07:26:52;;;;;;;10.13;5.67;;;;;;;15.89;71.21;100052.44;4426493;32;33466;-79
2023/10/23 07:29:20;;;;;;;8.70;5.50;;;;;;;15.95;71.27;100056.94;4425878;32;34340;-79
2023/10/23 07:31:47;;;;;;;8.48;6.07;;;;;;;16.11;70.85;100059.16;4429670;32;34537;-79
2023/10/23 07:34:15;;;;;;;9.48;5.93;;;;;;;16.20;70.38;100056.75;4426442;32;33465;-78
2023/10/23 07:36:43;;;;;;;9.18;6.53;;;;;;;16.36;69.81;100062.38;4430851;32;34031;-79
2023/10/23 07:39:11;;;;;;;9.48;6.90;;;;;;;16.20;70.67;100059.38;4421774;32;33849;-78
2023/10/23 07:41:39;;;;;;;10.25;7.50;;;;;;;16.34;70.54;100061.44;4421476;32;34131;-78
2023/10/23 07:44:06;;;;;;;11.30;7.47;;;;;;;16.26;70.89;100066.47;4421547;32;34315;-78
2023/10/23 07:46:34;;;;;;;10.20;7.53;;;;;;;16.49;70.10;100069.69;4421422;32;32848;-78
2023/10/23 07:49:02;;;;;;;9.35;6.97;;;;;;;16.54;70.21;100073.31;4429326;32;33533;-78
2023/10/23 07:51:29;;;;;;;9.25;6.90;;;;;;;16.49;70.59;100072.31;4420624;32;33288;-78
2023/10/23 07:53:57;;;;;;;9.55;6.47;;;;;;;16.49;70.83;100077.53;4415164;32;33730;-78
2023/10/23 07:56:25;;;;;;;9.43;6.57;;;;;;;16.53;70.70;100082.00;4426217;32;33703;-79
2023/10/23 07:58:55;;;;;;;10.90;7.25;;;;;;;16.80;69.70;100088.75;4414917;32;33054;-79
2023/10/23 08:01:23;;;;;;;10.52;7.62;;;;;;;16.79;69.49;100081.75;4424237;32;32456;-79
2023/10/23 08:03:51;;;;;;;8.60;6.93;;;;;;;16.85;69.49;100077.59;4425478;32;33763;-79
2023/10/23 08:06:18;;;;;;;9.60;7.62;;;;;;;16.95;69.40;100076.06;4424732;32;33160;-78
2023/10/23 08:08:46;;;;;;;11.27;7.43;;;;;;;16.95;69.40;100068.22;4435705;32;34439;-78
2023/10/23 08:11:14;;;;;;;12.63;6.05;;;;;;;17.00;69.28;100065.72;4425737;32;33749;-77
2023/10/23 08:13:41;;;;;;;11.55;6.97;;;;;;;17.00;77.30;100063.97;4421276;32;33946;-77
2023/10/23 08:16:09;;;;;;;8.73;5.93;;;;;;;16.99;74.18;100058.72;4432341;32;34310;-77
2023/10/23 08:18:37;;;;;;;10.40;7.78;;;;;;;16.97;73.93;100058.66;4425410;32;34424;-78
2023/10/23 08:21:13;;;;;;;10.36;7.90;;;;;;;17.30;70.93;100049.78;4422190;32;33597;-78
2023/10/23 08:23:42;;;;;;;11.82;8.13;;;;;;;17.42;69.24;100051.78;4425754;32;33449;-78
2023/10/23 08:26:09;;;;;;;10.55;8.30;;;;;;;17.56;68.11;100052.06;4422301;32;33348;-79
2023/10/23 08:28:37;;;;;;;10.38;7.80;;;;;;;17.40;68.52;100051.78;4428929;32;33604;-78
2023/10/23 08:31:08;;;;;;;11.10;7.85;;;;;;;17.69;67.67;100054.09;4429284;32;33581;-77
2023/10/23 08:33:51;;;;;;;10.65;7.75;;;;;;;18.10;65.54;100046.19;4410185;32;33595;-77
2023/10/23 08:36:20;;;;;;;9.85;7.20;;;;;;;18.20;64.83;100048.13;4422241;32;32077;-78
2023/10/23 08:38:48;;;;;;;11.48;7.68;;;;;;;18.43;63.89;100047.63;4425189;32;33763;-78
2023/10/23 08:41:15;;;;;;;11.35;7.47;;;;;;;18.30;63.91;100048.28;4429236;32;33452;-78
2023/10/23 08:43:43;;;;;;;9.75;7.10;;;;;;;18.43;63.94;100045.88;4422111;32;34470;-79
2023/10/23 08:46:10;;;;;;;9.38;6.30;;;;;;;18.61;63.45;100042.66;4422258;32;34069;-78
2023/10/23 08:48:38;;;;;;;9.57;5.82;;;;;;;19.15;59.44;100042.62;4428040;32;33901;-78
2023/10/23 08:51:07;;;;;;;8.70;5.65;;;;;;;19.16;59.85;100039.12;4424711;32;33696;-77
2023/10/23 08:53:40;;;;;;;10.77;5.68;;;;;;;19.31;58.85;100033.22;4425968;32;33949;-78
2023/10/23 08:56:09;;;;;;;8.15;5.25;;;;;;;19.47;58.25;100029.03;4401195;32;32462;-78
2023/10/23 08:58:37;;;;;;;8.68;5.00;;;;;;;19.79;57.10;100043.47;4412290;32;33846;-78
2023/10/23 09:01:04;;;;;;;8.07;5.05;;;;;;;20.11;55.58;100044.66;4407810;32;34515;-78
2023/10/23 09:03:32;;;;;;;8.63;5.20;;;;;;;20.25;54.98;100037.81;4420597;32;33614;-78
2023/10/23 09:06:20;;;;;;;7.40;4.40;;;;;;;20.45;54.59;100039.72;4422717;32;32516;-78
2023/10/23 09:08:48;;;;;;;8.68;4.47;;;;;;;20.49;53.42;100047.63;4427630;32;34447;-79
2023/10/23 09:11:15;;;;;;;7.72;4.05;;;;;;;20.91;52.80;100040.97;4424719;32;33955;-78
2023/10/23 09:13:43;;;;;;;6.47;3.87;;;;;;;21.05;51.33;100043.69;4428624;32;33381;-79
2023/10/23 09:16:11;;;;;;;6.28;3.67;;;;;;;20.98;50.96;100048.06;4422885;32;33286;-79
2023/10/23 09:18:51;;;;;;;7.55;3.85;;;;;;;21.28;49.70;100046.44;4426826;32;34323;-78
2023/10/23 09:21:19;;;;;;;6.15;3.20;;;;;;;21.26;49.66;100048.19;4429969;32;32967;-79
2023/10/23 09:23:55;;;;;;;6.72;3.03;;;;;;;21.58;48.06;100042.25;4408722;32;33861;-79
2023/10/23 09:26:23;;;;;;;6.12;2.87;;;;;;;21.69;47.84;100037.00;4415900;32;32155;-78
2023/10/23 09:28:54;;;;;;;5.80;2.70;;;;;;;21.88;48.17;100032.66;4428191;32;33725;-79
2023/10/23 09:31:22;;;;;;;4.80;2.60;;;;;;;22.03;47.48;100030.03;4414784;32;33557;-79
2023/10/23 09:33:50;;;;;;;6.05;2.97;;;;;;;22.36;47.46;100036.28;4411341;32;33454;-80
2023/10/23 09:36:19;;;;;;;6.57;3.35;;;;;;;22.52;46.63;100027.50;4411570;32;32722;-79
2023/10/23 09:39:00;;;;;;;5.60;2.42;;;;;;;22.76;46.00;100026.56;4429508;32;33902;-79
2023/10/23 09:41:28;;;;;;;6.07;3.00;;;;;;;22.93;44.55;100029.19;4434433;32;33702;-79
2023/10/23 09:43:57;;;;;;;5.50;2.10;;;;;;;22.96;44.60;100023.00;4409064;32;32427;-80
2023/10/23 09:46:25;;;;;;;4.57;2.20;;;;;;;23.23;43.15;100034.44;4428121;32;32938;-79
2023/10/23 09:48:58;;;;;;;5.45;2.78;;;;;;;23.29;43.57;100027.34;4427557;32;33758;-77
2023/10/23 09:51:39;;;;;;;5.20;2.30;;;;;;;23.20;44.08;100032.69;4431145;32;33168;-79
2023/10/23 09:54:17;;;;;;;7.15;2.45;;;;;;;23.75;42.44;100032.44;4410052;32;32531;-79
2023/10/23 09:56:50;;;;;;;4.20;1.90;;;;;;;23.90;45.91;100042.09;4419686;32;32422;-79
2023/10/23 09:59:23;;;;;;;5.30;2.05;;;;;;;23.98;42.52;100031.47;4423538;32;33458;-80
2023/10/23 10:01:56;;;;;;;4.97;2.40;;;;;;;23.85;41.87;100033.28;4418428;32;33357;-80
2023/10/23 10:05:05;;;;;;;7.15;2.55;;;;;;;24.13;40.99;100030.50;4411782;32;33022;-79
2023/10/23 10:07:44;;;;;;;4.68;2.28;;;;;;;23.88;41.35;100025.34;4399416;32;32771;-79
2023/10/23 10:10:12;;;;;;;5.82;2.42;;;;;;;24.22;42.32;100016.28;4433097;32;33158;-79
2023/10/23 10:12:41;;;;;;;4.07;2.00;;;;;;;23.92;41.70;100018.28;4415095;32;33454;-80
2023/10/23 10:15:09;;;;;;;4.72;2.00;;;;;;;24.21;40.87;100019.84;4427167;32;33738;-79
2023/10/23 10:17:39;;;;;;;4.80;2.03;;;;;;;24.23;41.20;100012.78;4420715;32;33186;-79
2023/10/23 10:20:11;;;;;;;4.20;2.25;;;;;;;24.33;42.05;100015.31;4426080;32;33209;-80
2023/10/23 10:22:41;;;;;;;5.23;2.17;;;;;;;23.96;41.74;100014.72;4416601;32;34347;-80
2023/10/23 10:25:11;;;;;;;4.57;1.85;;;;;;;24.31;40.98;100022.41;4418348;32;32981;-79
2023/10/23 10:27:39;;;;;;;3.33;1.80;;;;;;;24.34;41.16;100011.78;4424719;32;32634;-80
2023/10/23 10:30:40;;;;;;;5.50;2.10;;;;;;;24.26;41.58;100002.16;4433929;32;33740;-79
2023/10/23 10:33:10;;;;;;;7.22;2.40;;;;;;;24.21;42.18;100015.44;4432463;32;32937;-80
2023/10/23 10:36:05;;;;;;;4.62;2.10;;;;;;;24.12;42.05;100005.78;4424848;32;32026;-80
2023/10/23 10:38:34;;;;;;;4.15;1.90;;;;;;;24.15;42.26;100002.25;4417579;32;33303;-79
2023/10/23 10:41:16;;;;;;;4.87;1.90;;;;;;;24.18;41.29;99993.37;4431609;32;33570;-80
2023/10/23 10:43:50;;;;;;;5.28;1.98;;;;;;;24.28;42.41;99992.41;4424523;32;32981;-79
2023/10/23 10:46:22;;;;;;;4.18;1.83;;;;;;;24.55;41.29;99994.00;4432548;32;33715;-79
2023/10/23 10:48:54;;;;;;;4.45;1.70;;;;;;;24.17;40.61;99987.22;4430102;32;33147;-80
2023/10/23 10:51:22;;;;;;;4.32;1.90;;;;;;;24.14;41.46;99988.16;4425546;32;34067;-79
2023/10/23 10:54:04;;;;;;;3.90;2.00;;;;;;;24.02;42.63;99993.50;4434605;32;34539;-80
2023/10/23 10:56:32;;;;;;;4.87;2.40;;;;;;;24.21;41.77;99993.37;4414342;32;33080;-80
2023/10/23 10:59:04;;;;;;;4.10;1.50;;;;;;;24.07;42.51;99990.84;4427879;32;33069;-80
2023/10/23 11:01:32;;;;;;;3.65;1.58;;;;;;;24.61;41.33;99999.25;4434432;32;33370;-79
2023/10/23 11:04:00;;;;;;;6.62;2.65;;;;;;;24.27;42.48;99990.69;4427748;32;33580;-80
2023/10/23 11:06:29;;;;;;;3.05;1.20;;;;;;;24.20;43.10;99987.19;4421535;32;33834;-79
2023/10/23 11:08:58;;;;;;;2.92;1.10;;;;;;;23.78;41.84;99989.28;4430668;32;33005;-79
2023/10/23 11:11:27;;;;;;;3.33;1.08;;;;;;;24.19;43.35;99993.37;4424738;32;33526;-80
2023/10/23 11:13:55;;;;;;;2.80;1.00;;;;;;;24.71;42.03;99984.13;4434185;32;33385;-80
2023/10/23 11:16:23;;;;;;;3.35;1.17;;;;;;;24.83;41.24;99984.00;4427185;32;34297;-79
2023/10/23 11:18:51;;;;;;;3.97;1.20;;;;;;;24.68;42.77;99976.22;4428581;32;33237;-80
2023/10/23 11:21:23;;;;;;;3.60;1.15;;;;;;;24.83;41.41;99981.34;4432832;32;33673;-80
2023/10/23 11:23:55;;;;;;;3.90;1.30;;;;;;;24.68;42.54;99987.66;4424139;32;34265;-80
2023/10/23 11:26:23;;;;;;;3.40;1.20;;;;;;;24.57;41.53;99986.03;4431841;32;34049;-80
2023/10/23 11:28:51;;;;;;;4.15;1.10;;;;;;;24.78;42.35;99964.59;4430143;32;33315;-80
2023/10/23 11:31:21;;;;;;;5.97;1.30;;;;;;;25.06;43.17;99964.31;4411606;32;34382;-80
2023/10/23 11:33:55;;;;;;;3.90;1.12;;;;;;;24.65;42.30;99963.87;4420274;32;32867;-80
2023/10/23 11:36:27;;;;;;;4.50;1.07;;;;;;;25.02;42.50;99952.88;4426811;32;34189;-80
2023/10/23 11:38:56;;;;;;;2.85;1.15;;;;;;;25.18;43.59;99953.56;4428188;32;33149;-80